Aérodrome :
LOGIN :

S'inscrire | Disclaimer

   EN    FR    IT 

 










Légende :    VFR   VFR Marginal   IFR   IFR Intensif   IFR Très Intensif
Visi : 
Plafond : 
>= 8 km
>= 3000ft
5 à 8 km
1000 à 3000 ft
1500m à 5 km
500 à 1000 ft
800 à 1500m
200 à 500 ft
< 800m
< 200 ft
Symboles :   Orages  Brouillard  Fortes neiges  Fortes précipitations  Vent > 20 kt
SIGMETs :   Divers  Orages  Givrage  Turbulence  Onde Orograph.  Cendres Volcan.






- Altitude de l'aérodrome : 433 ft


LFOC - Chateaudun

DERNIER METAR :
  • 180630Z AUTO 20006KT CAVOK 02/01 Q1029 NOSIG

METARs EXPIRÉS :
  • 180600Z AUTO 20007KT CAVOK 03/02 Q1028 NOSIG
  • 180530Z AUTO 21009KT CAVOK 03/02 Q1028
  • 180500Z AUTO 21010KT CAVOK 03/02 Q1028
  • 180430Z AUTO 22010KT CAVOK 03/02 Q1028
  • 180400Z AUTO 22010KT CAVOK 03/02 Q1028

TAF TAF LFOC
Valide du 18 à 03h jusqu'au 19 à 03h UTC


180200Z 1803/1903 21010KT CAVOK
PROB40
TEMPO 1817/1820 4000 SHRA BKN035TCU
BECMG 1821/1823 4000 RA BKN012 BKN025TCU
PROB40
TEMPO 1900/1902 29015G25KT 2000 TSRA BKN005 BKN020CB



MET'MAP, la Météo Aéronautique d'un coup d'oeil ! - Copyright ORBIFLY Décembre 2007 - Disclaimer

ORBIFLY MET'MAP TEAM :

Programmation & Développement : Alexandra Zaïnal
Sur une idée originale de : Baudouin d'Aumeries
Assistance à la programmation : Marc-Olivier Méhu
Soutien technique & logistique : Manuel Goepfert

Contact : metmap@orbifly.com




SOURCES & CREDITS :

   NOAA